Time;durP1;ratioP1;P1;durP2;ratioP2;P2;SDS_P1;SDS_P2;PMS_P1;PMS_P2;Temp;Humidity;BMP_temperature;BMP_pressure;BME280_temperature;BME280_humidity;BME280_pressure;Samples;Min_cycle;Max_cycle;Signal;HPM_P1;HPM_P2
2022/09/29 00:02:09;;;;;;;5.53;2.58;;;;;;;14.94;81.60;96725.94;5085750;28;20040;-59
2022/09/29 00:04:34;;;;;;;5.68;2.83;;;;;;;14.87;81.92;96719.19;5075357;28;20036;-59
2022/09/29 00:07:00;;;;;;;5.47;2.60;;;;;;;14.70;82.23;96680.50;5068897;28;20823;-60
2022/09/29 00:09:25;;;;;;;7.00;2.45;;;;;;;14.76;82.13;96676.22;5095987;27;20549;-60
2022/09/29 00:11:54;;;;;;;6.32;2.55;;;;;;;14.82;82.04;96690.25;5065443;28;20067;-58
2022/09/29 00:14:21;;;;;;;5.13;2.30;;;;;;;14.92;80.55;96714.09;5013882;28;20038;-60
2022/09/29 00:16:47;;;;;;;7.03;2.22;;;;;;;14.85;82.01;96708.94;5066803;28;20035;-59
2022/09/29 00:19:12;;;;;;;5.93;2.20;;;;;;;14.82;80.76;96700.72;5075605;27;20063;-58
2022/09/29 00:21:38;;;;;;;6.65;2.65;;;;;;;14.76;81.18;96695.34;5060790;28;20024;-59
2022/09/29 00:24:03;;;;;;;7.70;3.33;;;;;;;14.84;80.16;96682.97;5065964;28;20042;-58
2022/09/29 00:26:28;;;;;;;5.25;2.10;;;;;;;14.82;80.00;96690.25;5063123;28;20035;-59
2022/09/29 00:28:56;;;;;;;5.43;2.38;;;;;;;14.86;80.12;96697.47;5061131;28;20035;-59
2022/09/29 00:31:26;;;;;;;6.65;2.30;;;;;;;14.85;79.35;96684.59;5062258;28;20115;-58
2022/09/29 00:33:52;;;;;;;6.32;2.15;;;;;;;14.81;79.55;96689.47;5056870;28;20024;-59
2022/09/29 00:36:19;;;;;;;5.88;2.30;;;;;;;14.78;79.54;96701.16;5052999;28;20829;-58
2022/09/29 00:38:46;;;;;;;4.75;2.13;;;;;;;14.72;80.00;96680.31;5082595;28;20062;-59
2022/09/29 00:41:23;;;;;;;5.28;2.30;;;;;;;14.82;79.30;96690.25;5062577;28;20055;-60
2022/09/29 00:43:56;;;;;;;6.05;2.20;;;;;;;14.78;78.97;96684.66;5072283;28;20579;-59
2022/09/29 00:46:53;;;;;;;5.18;2.20;;;;;;;14.76;78.84;96682.25;5062487;28;20081;-61
2022/09/29 00:49:38;;;;;;;6.97;2.30;;;;;;;14.71;80.18;96678.69;5072934;28;20097;-58
2022/09/29 00:52:15;;;;;;;4.97;2.38;;;;;;;14.75;79.30;96679.88;5062848;28;20047;-59
2022/09/29 00:54:45;;;;;;;5.78;2.10;;;;;;;14.71;79.59;96673.47;5063028;28;20028;-60
2022/09/29 00:57:12;;;;;;;5.38;2.28;;;;;;;14.74;80.00;96688.72;5045183;28;20020;-60
2022/09/29 00:59:58;;;;;;;5.55;2.10;;;;;;;14.72;79.91;96688.16;5108467;27;20092;-59
2022/09/29 01:02:24;;;;;;;4.20;2.00;;;;;;;14.64;79.65;96680.56;5071837;28;20115;-59
2022/09/29 01:04:52;;;;;;;5.82;2.30;;;;;;;14.65;79.69;96667.28;5070640;28;20115;-58
2022/09/29 01:07:20;;;;;;;5.25;2.20;;;;;;;14.71;79.82;96673.47;5065971;28;20032;-59
2022/09/29 01:09:47;;;;;;;4.97;2.33;;;;;;;14.52;79.12;96634.19;5062107;28;20486;-59
2022/09/29 01:12:12;;;;;;;5.68;2.08;;;;;;;14.82;80.24;96667.50;5055742;28;20127;-59
2022/09/29 01:14:38;;;;;;;4.43;2.20;;;;;;;14.87;80.04;96664.22;5067843;28;20096;-58
2022/09/29 01:17:04;;;;;;;5.47;1.88;;;;;;;14.57;80.53;96628.34;5085020;28;20038;-59
2022/09/29 01:19:36;;;;;;;6.13;2.35;;;;;;;14.88;80.72;96669.25;5077806;28;20028;-59
2022/09/29 01:22:19;;;;;;;6.25;2.00;;;;;;;14.88;81.49;96656.16;5068264;28;20044;-60
2022/09/29 01:24:48;;;;;;;5.40;2.22;;;;;;;14.87;80.26;96648.53;5058827;28;20031;-60
2022/09/29 01:27:50;;;;;;;4.68;2.10;;;;;;;14.79;80.61;96653.03;5072127;28;20044;-59
2022/09/29 01:30:20;;;;;;;6.78;2.33;;;;;;;14.58;80.90;96614.25;5067703;28;20083;-60
2022/09/29 01:32:45;;;;;;;;;;;;;;;14.88;82.39;96660.63;5085097;28;20033;-60
2022/09/29 01:35:33;;;;;;;6.80;2.30;;;;;;;14.89;82.33;96657.75;5071088;28;20310;-60
2022/09/29 01:38:17;;;;;;;5.18;2.08;;;;;;;14.86;82.61;96652.16;5100800;27;20831;-60
2022/09/29 01:41:01;;;;;;;5.90;1.90;;;;;;;14.84;83.29;96659.44;5072883;28;20028;-59
2022/09/29 01:43:32;;;;;;;5.07;2.00;;;;;;;14.88;80.07;96658.00;5073744;28;20041;-59
2022/09/29 01:46:03;;;;;;;6.05;1.95;;;;;;;14.70;78.67;96648.34;5069046;28;20028;-59
2022/09/29 01:48:32;;;;;;;4.57;1.83;;;;;;;14.53;78.03;96635.00;5052708;28;20035;-60
2022/09/29 01:51:02;;;;;;;7.20;2.20;;;;;;;14.55;79.56;96644.22;5063692;28;20115;-59
2022/09/29 01:53:34;;;;;;;13.50;2.30;;;;;;;14.60;79.40;96651.44;5074666;27;20392;-59
2022/09/29 01:56:04;;;;;;;6.20;2.40;;;;;;;14.56;80.00;96658.09;5060886;28;20128;-58
2022/09/29 01:58:36;;;;;;;6.78;2.20;;;;;;;14.56;81.64;96652.88;5067981;28;20074;-59
2022/09/29 02:01:05;;;;;;;4.57;1.98;;;;;;;14.59;81.03;96647.25;5068655;28;20074;-58
2022/09/29 02:03:41;;;;;;;5.77;2.40;;;;;;;14.43;81.02;96643.34;5063875;28;20060;-60
2022/09/29 02:06:11;;;;;;;4.72;2.13;;;;;;;14.30;80.86;96605.06;5060401;28;20274;-59
2022/09/29 02:08:45;;;;;;;5.45;2.22;;;;;;;14.54;80.48;96629.56;5064256;28;20033;-59
2022/09/29 02:11:12;;;;;;;5.72;2.20;;;;;;;14.51;80.96;96634.41;5069054;28;20034;-60
2022/09/29 02:13:42;;;;;;;6.03;2.20;;;;;;;14.49;80.48;96636.44;5062268;28;20375;-58
2022/09/29 02:16:10;;;;;;;4.55;2.03;;;;;;;14.49;79.44;96636.44;5079972;28;20584;-59
2022/09/29 02:19:03;;;;;;;5.57;1.98;;;;;;;14.46;80.37;96644.75;5070927;28;20036;-60
2022/09/29 02:21:29;;;;;;;4.32;2.03;;;;;;;14.30;80.43;96636.44;5065464;28;20027;-59
2022/09/29 02:23:54;;;;;;;5.75;2.20;;;;;;;14.29;81.41;96642.72;5060102;28;20035;-58
2022/09/29 02:26:20;;;;;;;5.43;2.20;;;;;;;14.32;81.40;96642.25;5065383;28;20107;-59
2022/09/29 02:28:46;;;;;;;4.53;2.22;;;;;;;14.09;81.27;96595.03;5066789;28;20035;-59
2022/09/29 02:31:12;;;;;;;5.18;2.33;;;;;;;14.31;81.44;96634.63;5077605;28;20046;-60
2022/09/29 02:33:37;;;;;;;5.78;2.35;;;;;;;13.90;81.94;96594.22;5069748;28;20036;-58
2022/09/29 02:36:23;;;;;;;5.93;2.15;;;;;;;14.18;82.38;96635.56;5074287;28;20036;-60
2022/09/29 02:38:59;;;;;;;4.95;2.00;;;;;;;14.12;82.16;96620.75;5060445;28;20162;-58
2022/09/29 02:41:40;;;;;;;6.13;2.40;;;;;;;14.15;82.87;96626.34;5061902;28;20113;-59
2022/09/29 02:44:30;;;;;;;7.30;2.42;;;;;;;14.08;83.68;96628.22;5091772;27;20686;-60
2022/09/29 02:47:23;;;;;;;4.50;2.15;;;;;;;14.12;83.75;96642.44;5055557;28;20028;-60
2022/09/29 02:49:55;;;;;;;5.28;2.00;;;;;;;14.07;83.71;96642.28;5071791;28;20033;-60
2022/09/29 02:52:41;;;;;;;5.75;2.33;;;;;;;14.13;83.24;96636.22;5072165;28;20039;-60
2022/09/29 02:55:34;;;;;;;7.18;2.42;;;;;;;14.12;84.38;96636.41;5080738;28;20035;-59
2022/09/29 02:58:19;;;;;;;5.50;2.00;;;;;;;14.09;84.71;96626.38;5069316;28;20063;-59
2022/09/29 03:00:45;;;;;;;4.70;2.25;;;;;;;14.07;85.57;96625.81;5076054;28;20055;-59
2022/09/29 03:03:10;;;;;;;4.75;2.40;;;;;;;14.09;85.88;96640.28;5057897;28;20064;-60
2022/09/29 03:05:35;;;;;;;6.32;2.15;;;;;;;14.08;86.28;96632.66;5077776;28;20021;-59
2022/09/29 03:08:01;;;;;;;6.43;2.17;;;;;;;13.99;86.88;96632.91;5067940;28;20383;-60
2022/09/29 03:10:26;;;;;;;4.70;1.90;;;;;;;13.98;86.51;96625.28;5071170;28;20020;-59
2022/09/29 03:12:52;;;;;;;6.22;2.50;;;;;;;14.01;87.19;96643.16;5070816;28;20100;-58
2022/09/29 03:15:17;;;;;;;4.63;2.25;;;;;;;14.01;86.90;96641.31;5048265;28;20059;-61
2022/09/29 03:17:44;;;;;;;4.30;2.10;;;;;;;14.16;86.84;96642.81;5060705;28;20461;-59
2022/09/29 03:20:09;;;;;;;4.95;2.28;;;;;;;14.08;86.90;96641.28;5074870;28;20074;-60
2022/09/29 03:22:35;;;;;;;4.95;2.13;;;;;;;14.10;87.13;96633.22;5060321;28;20028;-60
2022/09/29 03:25:01;;;;;;;6.18;2.67;;;;;;;14.08;87.92;96627.41;5066015;28;20417;-60
2022/09/29 03:27:26;;;;;;;6.03;2.15;;;;;;;14.04;88.30;96637.50;5068750;28;20759;-59
2022/09/29 03:29:52;;;;;;;5.32;2.70;;;;;;;14.02;87.94;96610.78;5066529;28;20025;-60
2022/09/29 03:32:17;;;;;;;5.65;1.90;;;;;;;14.12;88.21;96631.19;5094134;27;20055;-60
2022/09/29 03:34:43;;;;;;;6.70;2.38;;;;;;;13.95;88.49;96594.38;5068442;28;20031;-60
2022/09/29 03:37:08;;;;;;;5.57;2.13;;;;;;;14.17;88.49;96631.34;5070037;28;20508;-60
2022/09/29 03:39:33;;;;;;;6.30;2.20;;;;;;;14.04;88.64;96599.09;5051484;28;20035;-59
2022/09/29 03:41:59;;;;;;;5.53;2.42;;;;;;;14.30;88.21;96631.22;5060017;28;20036;-60
2022/09/29 03:44:25;;;;;;;5.25;2.15;;;;;;;14.31;88.06;96634.63;5073142;28;20028;-59
2022/09/29 03:46:50;;;;;;;10.35;2.60;;;;;;;14.26;87.58;96637.09;5065915;28;20072;-60
2022/09/29 03:49:15;;;;;;;6.63;2.45;;;;;;;14.00;87.54;96600.56;5051698;28;20036;-60
2022/09/29 03:51:41;;;;;;;4.28;2.13;;;;;;;14.33;87.80;96636.03;5072232;28;20032;-59
2022/09/29 03:54:07;;;;;;;5.82;2.00;;;;;;;14.18;89.10;96632.94;5072267;28;20060;-60
2022/09/29 03:56:33;;;;;;;6.97;2.03;;;;;;;14.30;87.61;96638.28;5074736;28;20060;-60
2022/09/29 03:58:58;;;;;;;5.28;2.00;;;;;;;14.40;87.48;96649.00;5071980;28;20029;-59
2022/09/29 04:01:24;;;;;;;5.20;2.05;;;;;;;14.13;87.17;96607.47;5099104;27;20082;-59
2022/09/29 04:03:49;;;;;;;4.47;2.08;;;;;;;14.46;87.28;96645.53;5074836;28;20448;-59
2022/09/29 04:06:14;;;;;;;6.43;2.20;;;;;;;14.16;87.64;96590.53;5093370;28;20603;-59
2022/09/29 04:08:40;;;;;;;6.07;2.22;;;;;;;14.16;87.91;96603.59;5070595;28;20201;-58
2022/09/29 04:11:05;;;;;;;5.13;2.38;;;;;;;14.48;87.79;96645.34;5067878;28;20808;-58
2022/09/29 04:13:31;;;;;;;5.90;2.55;;;;;;;14.54;87.74;96650.47;5068334;28;20040;-58
2022/09/29 04:16:01;;;;;;;4.57;2.13;;;;;;;14.56;87.58;96653.66;5055548;28;20164;-59
2022/09/29 04:18:27;;;;;;;4.53;2.20;;;;;;;14.50;87.76;96649.31;5070548;28;20442;-60
2022/09/29 04:20:54;;;;;;;5.10;2.20;;;;;;;14.52;87.58;96651.72;5071319;28;20035;-59
2022/09/29 04:23:19;;;;;;;5.40;1.98;;;;;;;14.53;87.87;96648.06;5074071;28;20493;-59
2022/09/29 04:25:46;;;;;;;4.63;2.13;;;;;;;14.58;88.08;96659.53;5070974;28;20032;-59
2022/09/29 04:28:12;;;;;;;6.93;2.33;;;;;;;14.30;88.34;96618.16;5064709;28;20111;-61
2022/09/29 04:30:37;;;;;;;5.22;2.08;;;;;;;14.58;88.06;96661.31;5070801;28;20402;-60
2022/09/29 04:33:03;;;;;;;4.90;2.00;;;;;;;14.46;87.78;96665.66;5066817;28;20020;-59
2022/09/29 04:35:28;;;;;;;4.43;2.13;;;;;;;14.42;88.24;96660.88;5063383;28;20032;-59
2022/09/29 04:37:58;;;;;;;5.38;2.00;;;;;;;14.39;86.53;96650.84;5070096;28;20048;-63
2022/09/29 04:40:24;;;;;;;5.28;2.25;;;;;;;14.32;86.14;96660.56;5101229;27;20039;-59
2022/09/29 04:42:49;;;;;;;5.40;2.10;;;;;;;14.36;86.21;96646.03;5074452;28;20119;-59
2022/09/29 04:45:15;;;;;;;5.10;2.35;;;;;;;14.03;86.06;96610.56;5084356;27;20032;-59
2022/09/29 04:47:40;;;;;;;4.13;2.00;;;;;;;14.23;86.06;96646.94;5069106;28;20446;-60
2022/09/29 04:50:06;;;;;;;8.32;2.70;;;;;;;13.92;87.09;96613.09;5055779;28;20199;-59
2022/09/29 04:52:32;;;;;;;5.70;2.20;;;;;;;14.22;86.38;96663.66;5064199;28;20051;-58
2022/09/29 04:54:57;;;;;;;6.75;2.50;;;;;;;13.94;86.30;96624.13;5082035;28;20491;-59
2022/09/29 04:57:23;;;;;;;7.38;2.30;;;;;;;14.14;86.17;96648.25;5058738;28;20024;-59
2022/09/29 04:59:50;;;;;;;5.78;2.60;;;;;;;14.20;86.48;96659.66;5076945;28;20028;-58
2022/09/29 05:02:18;;;;;;;5.57;2.40;;;;;;;14.14;86.86;96655.28;5087159;28;20663;-59
2022/09/29 05:04:44;;;;;;;5.15;2.20;;;;;;;14.13;86.61;96666.78;5069914;28;20036;-60
2022/09/29 05:07:10;;;;;;;5.72;2.75;;;;;;;14.09;86.76;96653.34;5074198;28;20055;-59
2022/09/29 05:09:35;;;;;;;7.57;2.45;;;;;;;14.14;86.87;96668.38;5074408;28;20060;-59
2022/09/29 05:12:01;;;;;;;7.00;2.08;;;;;;;13.98;86.70;96639.16;5073947;28;20028;-59
2022/09/29 05:14:27;;;;;;;6.00;2.50;;;;;;;14.15;86.92;96672.59;5074846;28;20510;-59
2022/09/29 05:16:55;;;;;;;8.27;2.95;;;;;;;14.14;86.73;96671.78;5070393;28;20035;-60
2022/09/29 05:19:21;;;;;;;5.18;2.15;;;;;;;14.18;85.74;96666.91;5054182;28;20396;-59
2022/09/29 05:21:46;;;;;;;5.57;2.42;;;;;;;14.13;85.43;96664.97;5066404;28;21171;-59
2022/09/29 05:24:12;;;;;;;5.85;2.30;;;;;;;14.03;86.47;96649.75;5047849;28;20040;-60
2022/09/29 05:26:37;;;;;;;5.50;2.20;;;;;;;14.24;86.62;96663.47;5067192;28;20047;-59
2022/09/29 05:29:03;;;;;;;5.45;2.25;;;;;;;14.20;87.09;96665.69;5067728;28;20025;-58
2022/09/29 05:31:28;;;;;;;4.47;2.30;;;;;;;14.22;87.75;96668.09;5046029;28;20025;-58
2022/09/29 05:33:55;;;;;;;8.63;2.38;;;;;;;14.20;87.76;96678.78;4985726;28;20046;-59
2022/09/29 05:36:21;;;;;;;5.55;2.47;;;;;;;14.12;87.63;96688.69;5067283;28;20077;-59
2022/09/29 05:38:46;;;;;;;10.32;2.60;;;;;;;14.12;87.60;96681.63;5053787;28;20044;-59
2022/09/29 05:41:12;;;;;;;6.38;2.60;;;;;;;14.05;87.76;96680.91;5099397;27;20036;-59
2022/09/29 05:43:38;;;;;;;5.05;2.40;;;;;;;13.87;87.60;96654.72;5097285;27;20605;-59
2022/09/29 05:46:06;;;;;;;5.32;2.40;;;;;;;13.89;87.80;96658.75;5062839;28;20020;-58
2022/09/29 05:48:31;;;;;;;5.10;2.22;;;;;;;14.08;87.53;96690.13;5068064;28;20449;-59
2022/09/29 05:50:58;;;;;;;5.03;2.50;;;;;;;14.04;87.34;96681.94;5063858;28;20032;-58
2022/09/29 05:53:23;;;;;;;6.60;2.63;;;;;;;14.12;87.39;96680.84;5068343;28;20112;-59
2022/09/29 05:55:49;;;;;;;6.78;2.75;;;;;;;14.15;86.88;96677.81;5023905;28;20054;-59
2022/09/29 05:58:14;;;;;;;5.40;2.38;;;;;;;14.08;86.90;96687.53;5066357;28;20046;-57
2022/09/29 06:00:40;;;;;;;4.45;2.17;;;;;;;14.06;87.25;96671.25;5066565;28;20032;-58
2022/09/29 06:03:05;;;;;;;5.43;2.53;;;;;;;14.10;86.27;96686.28;5084039;28;20077;-59
2022/09/29 06:05:31;;;;;;;5.60;2.13;;;;;;;14.17;85.75;96699.31;5090246;28;20382;-56
2022/09/29 06:07:57;;;;;;;5.80;2.38;;;;;;;14.16;85.27;96689.84;5053933;28;20032;-59
2022/09/29 06:10:23;;;;;;;6.47;2.33;;;;;;;14.23;85.15;96706.28;5051764;28;20051;-57
2022/09/29 06:12:48;;;;;;;5.97;2.17;;;;;;;14.09;85.58;96704.78;5086518;28;20028;-57
2022/09/29 06:15:14;;;;;;;4.57;2.25;;;;;;;14.16;85.61;96706.31;4987594;28;20029;-58
2022/09/29 06:17:39;;;;;;;5.22;2.22;;;;;;;14.19;85.49;96705.13;5064714;28;20158;-58
2022/09/29 06:20:05;;;;;;;7.45;2.65;;;;;;;14.14;85.55;96697.13;5063511;28;20546;-56
2022/09/29 06:22:31;;;;;;;5.15;2.42;;;;;;;14.17;85.16;96683.63;5069307;28;20127;-58
2022/09/29 06:24:57;;;;;;;5.35;2.30;;;;;;;14.22;84.55;96674.13;5059280;28;20163;-58
2022/09/29 06:27:23;;;;;;;4.88;2.10;;;;;;;14.34;84.64;96687.28;5101163;27;20464;-57
2022/09/29 06:29:48;;;;;;;8.38;2.47;;;;;;;14.21;83.88;96662.06;5068454;28;20133;-58
2022/09/29 06:32:14;;;;;;;5.82;2.10;;;;;;;14.31;82.82;96660.75;5059994;28;20021;-58
2022/09/29 06:37:33;;;;;;;6.50;2.13;;;;;;;14.30;83.69;96657.34;5071562;28;20053;-57
2022/09/29 06:37:33;;;;;;;4.60;2.10;;;;;;;14.54;83.24;96683.69;5064813;28;20035;-58
2022/09/29 06:39:59;;;;;;;5.88;2.20;;;;;;;14.21;83.91;96643.75;5064418;28;20517;-58
2022/09/29 06:42:25;;;;;;;6.30;2.08;;;;;;;14.48;84.83;96692.41;5057718;28;20033;-58
2022/09/29 06:44:50;;;;;;;6.15;2.40;;;;;;;14.30;84.03;96656.56;5078490;28;20035;-58
2022/09/29 06:47:16;;;;;;;6.05;2.17;;;;;;;14.67;83.15;96707.09;5065677;28;20036;-59
2022/09/29 06:49:42;;;;;;;12.27;2.67;;;;;;;14.71;82.41;96697.00;5068774;28;20036;-59
2022/09/29 06:52:07;;;;;;;36.15;4.22;;;;;;;14.71;81.98;96686.53;5073886;28;20024;-59
2022/09/29 06:54:33;;;;;;;7.35;2.85;;;;;;;14.66;81.92;96683.78;5032630;28;20074;-60
2022/09/29 06:56:59;;;;;;;7.15;2.40;;;;;;;14.79;81.32;96694.91;5098596;27;20054;-58
2022/09/29 06:59:25;;;;;;;5.43;2.30;;;;;;;14.69;82.37;96697.22;5068788;28;20101;-58
2022/09/29 07:01:50;;;;;;;7.30;2.42;;;;;;;14.79;81.90;96699.34;5095308;27;20108;-59
2022/09/29 07:04:17;;;;;;;4.53;2.30;;;;;;;14.88;81.61;96698.03;5067388;28;20052;-58
2022/09/29 07:06:44;;;;;;;5.60;2.58;;;;;;;14.87;80.72;96700.88;5085020;28;20066;-58
2022/09/29 07:09:14;;;;;;;6.05;2.45;;;;;;;14.92;81.02;96691.34;5061456;28;20336;-58
2022/09/29 07:11:41;;;;;;;6.60;2.25;;;;;;;14.90;81.52;96689.97;5068447;28;20020;-60
2022/09/29 07:14:06;;;;;;;6.35;2.17;;;;;;;14.86;81.47;96686.16;5052155;28;20024;-60
2022/09/29 07:16:32;;;;;;;6.28;2.28;;;;;;;14.92;81.62;96683.50;5009968;28;20032;-58
2022/09/29 07:18:57;;;;;;;5.28;2.10;;;;;;;14.90;81.79;96675.06;5074476;28;20037;-57
2022/09/29 07:21:22;;;;;;;6.90;2.83;;;;;;;14.98;81.22;96681.81;5060752;28;20032;-60
2022/09/29 07:23:48;;;;;;;5.97;2.35;;;;;;;15.07;81.71;96675.25;5094621;27;20394;-58
2022/09/29 07:26:18;;;;;;;4.65;2.10;;;;;;;15.10;80.67;96684.50;5083925;28;20060;-58
2022/09/29 07:28:44;;;;;;;5.93;2.28;;;;;;;15.14;79.96;96675.19;5051768;28;20028;-58
2022/09/29 07:31:13;;;;;;;6.00;2.38;;;;;;;15.10;79.77;96685.28;5066591;28;20029;-57
2022/09/29 07:33:38;;;;;;;6.57;2.45;;;;;;;15.12;79.82;96698.94;5062110;28;20112;-58
2022/09/29 07:36:04;;;;;;;6.20;2.15;;;;;;;15.15;79.97;96700.31;5070851;28;20596;-59
2022/09/29 07:38:30;;;;;;;4.75;2.20;;;;;;;15.13;79.90;96695.34;5062981;28;20032;-58
2022/09/29 07:41:02;;;;;;;4.85;2.30;;;;;;;15.12;80.37;96701.56;5066864;28;20060;-59
2022/09/29 07:43:29;;;;;;;11.65;3.20;;;;;;;15.05;80.54;96707.91;5064849;28;20028;-58
2022/09/29 07:45:55;;;;;;;6.05;2.45;;;;;;;14.98;80.94;96698.31;5061196;28;20028;-58
2022/09/29 07:48:21;;;;;;;7.15;2.35;;;;;;;15.04;81.30;96709.75;5067528;28;20073;-59
2022/09/29 07:50:46;;;;;;;4.82;2.30;;;;;;;15.11;79.98;96713.06;5073522;28;20490;-57
2022/09/29 07:53:12;;;;;;;7.35;2.67;;;;;;;15.09;80.15;96716.91;5067024;28;20024;-58
2022/09/29 07:55:38;;;;;;;5.07;2.25;;;;;;;14.87;80.21;96685.97;5076915;28;20067;-59
2022/09/29 07:58:04;;;;;;;5.50;2.50;;;;;;;14.91;80.23;96691.56;5059121;28;20025;-60
2022/09/29 08:00:30;;;;;;;5.40;2.30;;;;;;;15.01;80.27;96718.03;5065769;28;20058;-58
2022/09/29 08:03:01;;;;;;;8.55;3.08;;;;;;;14.94;80.18;96715.47;5066302;28;20024;-59
2022/09/29 08:05:28;;;;;;;5.85;2.20;;;;;;;15.06;80.24;96720.78;5085900;28;20032;-58
2022/09/29 08:07:54;;;;;;;6.95;2.17;;;;;;;15.05;80.15;96718.38;5063972;28;20113;-58
2022/09/29 08:10:19;;;;;;;5.95;2.10;;;;;;;15.11;80.50;96722.72;5061882;28;20783;-57
2022/09/29 08:12:44;;;;;;;5.18;2.25;;;;;;;15.19;79.77;96720.63;5085216;28;20036;-58
2022/09/29 08:15:10;;;;;;;5.88;2.53;;;;;;;15.15;78.90;96721.25;5064962;28;20108;-60
2022/09/29 08:17:35;;;;;;;5.90;2.30;;;;;;;15.15;79.34;96716.03;5087336;27;20043;-58
2022/09/29 08:20:01;;;;;;;5.20;2.22;;;;;;;15.16;78.38;96713.19;5069487;28;20430;-60
2022/09/29 08:22:26;;;;;;;6.00;2.15;;;;;;;14.96;78.59;96686.47;5068493;28;20047;-59
2022/09/29 08:24:51;;;;;;;5.50;2.40;;;;;;;15.02;78.71;96682.16;5051839;28;20379;-58
2022/09/29 08:27:17;;;;;;;7.43;2.30;;;;;;;15.27;78.56;96727.38;5077757;28;20028;-60
2022/09/29 08:29:42;;;;;;;7.53;2.97;;;;;;;15.32;78.81;96719.66;5062405;28;20027;-59
2022/09/29 08:32:08;;;;;;;8.15;2.92;;;;;;;15.31;78.39;96719.88;5077644;28;20051;-59
2022/09/29 08:34:33;;;;;;;7.93;3.00;;;;;;;15.40;77.85;96726.41;5065624;28;20115;-59
2022/09/29 08:36:58;;;;;;;8.77;3.65;;;;;;;15.37;77.68;96732.09;5085810;28;21685;-58
2022/09/29 08:39:24;;;;;;;7.13;3.20;;;;;;;15.53;77.05;96728.03;5064779;28;20420;-59
2022/09/29 08:41:53;;;;;;;7.10;3.72;;;;;;;15.32;77.10;96695.28;5073142;28;20435;-60
2022/09/29 08:44:21;;;;;;;8.15;2.92;;;;;;;15.26;77.56;96702.22;5060072;28;20060;-59
2022/09/29 08:46:50;;;;;;;10.35;3.15;;;;;;;15.57;78.16;96740.50;5071396;28;20070;-60
2022/09/29 08:49:19;;;;;;;5.95;2.42;;;;;;;15.54;77.67;96740.91;5091048;28;20501;-60
2022/09/29 08:51:50;;;;;;;7.23;2.43;;;;;;;15.57;76.96;96730.00;5065707;28;20028;-58
2022/09/29 08:54:37;;;;;;;5.57;2.20;;;;;;;15.74;76.95;96737.28;5072116;28;20021;-59
2022/09/29 08:57:03;;;;;;;6.15;2.60;;;;;;;15.71;76.84;96735.84;5051277;28;20032;-58
2022/09/29 08:59:30;;;;;;;7.97;2.47;;;;;;;15.65;78.89;96734.13;5068686;28;20694;-60
2022/09/29 09:02:20;;;;;;;5.10;2.40;;;;;;;15.84;79.12;96740.13;5054844;28;20028;-59
2022/09/29 09:05:13;;;;;;;6.63;2.47;;;;;;;15.87;78.24;96749.38;5073665;28;20098;-57
2022/09/29 09:07:50;;;;;;;6.55;2.67;;;;;;;15.78;78.75;96746.28;5067742;28;20040;-60
2022/09/29 09:10:31;;;;;;;6.35;2.63;;;;;;;15.67;78.57;96723.44;5070028;28;20027;-58
2022/09/29 09:13:11;;;;;;;5.22;2.25;;;;;;;15.89;78.22;96748.13;5071971;28;20032;-59
2022/09/29 09:15:53;;;;;;;7.72;2.63;;;;;;;15.85;78.92;96746.97;5063398;28;20063;-61
2022/09/29 09:18:47;;;;;;;8.82;2.50;;;;;;;15.75;77.98;96712.66;5073366;28;20481;-61
2022/09/29 09:21:33;;;;;;;6.50;2.40;;;;;;;15.98;78.54;96753.84;5070182;28;20537;-58
2022/09/29 09:24:30;;;;;;;6.03;2.20;;;;;;;16.03;77.90;96745.31;5061904;28;20040;-58
2022/09/29 09:26:57;;;;;;;6.55;2.40;;;;;;;15.89;78.02;96729.00;5044044;28;20037;-57
2022/09/29 09:29:29;;;;;;;6.63;2.67;;;;;;;16.02;78.62;96743.72;5054722;28;20039;-58
2022/09/29 09:31:59;;;;;;;6.18;2.60;;;;;;;15.75;77.98;96704.78;5068981;28;20471;-58
2022/09/29 09:34:28;;;;;;;5.03;2.30;;;;;;;16.09;77.07;96741.78;5083144;28;20089;-57
2022/09/29 09:37:00;;;;;;;7.30;2.95;;;;;;;16.06;77.84;96737.00;5072254;28;20031;-58
2022/09/29 09:39:32;;;;;;;6.50;2.97;;;;;;;16.05;78.47;96743.28;5067589;28;20484;-60
2022/09/29 09:41:59;;;;;;;7.40;2.88;;;;;;;16.07;78.43;96738.59;5066328;28;20060;-58
2022/09/29 09:44:33;;;;;;;6.97;2.97;;;;;;;16.02;78.64;96744.50;5066803;28;20032;-57
2022/09/29 09:47:26;;;;;;;7.30;2.67;;;;;;;15.98;77.23;96746.00;5066767;28;20034;-58
2022/09/29 09:49:59;;;;;;;7.35;2.60;;;;;;;16.03;78.94;96735.63;5070526;28;20016;-58
2022/09/29 09:52:35;;;;;;;6.07;3.08;;;;;;;15.95;78.41;96697.44;5064655;28;20093;-57
2022/09/29 09:55:04;;;;;;;6.15;3.00;;;;;;;16.04;78.95;96734.59;5065376;28;20071;-59
2022/09/29 09:57:50;;;;;;;5.78;2.58;;;;;;;16.07;79.13;96728.91;5077024;28;20024;-58
2022/09/29 10:00:29;;;;;;;6.22;2.58;;;;;;;16.16;79.14;96721.53;5078220;28;20116;-58
2022/09/29 10:02:55;;;;;;;6.18;2.58;;;;;;;16.20;78.37;96720.03;5070192;28;20475;-59
2022/09/29 10:05:35;;;;;;;5.40;2.45;;;;;;;16.17;79.27;96714.44;5061648;28;20101;-58
2022/09/29 10:08:00;;;;;;;;;;;;;;;16.10;79.52;96717.97;5082372;28;20040;-58
2022/09/29 10:10:28;;;;;;;5.47;2.38;;;;;;;16.02;79.33;96714.88;5061296;28;19915;-57
2022/09/29 10:13:03;;;;;;;6.82;2.88;;;;;;;16.01;80.16;96713.28;5056640;28;20107;-59
2022/09/29 10:15:36;;;;;;;7.82;2.97;;;;;;;16.05;79.62;96710.00;5057900;28;20047;-56
2022/09/29 10:18:12;;;;;;;8.13;2.72;;;;;;;15.97;80.86;96712.91;5063507;28;20028;-58
2022/09/29 10:20:40;;;;;;;6.00;3.20;;;;;;;15.67;79.61;96666.59;5066369;28;20033;-57
2022/09/29 10:23:30;;;;;;;7.60;3.00;;;;;;;16.06;79.79;96705.53;5065584;28;20024;-60
2022/09/29 10:26:11;;;;;;;6.63;3.20;;;;;;;16.11;80.38;96705.66;5064531;28;20036;-58
2022/09/29 10:28:44;;;;;;;8.30;3.17;;;;;;;15.79;80.06;96685.00;5044468;28;20032;-57
2022/09/29 10:31:19;;;;;;;7.45;3.28;;;;;;;15.80;80.75;96696.28;5071265;28;20047;-58
2022/09/29 10:33:50;;;;;;;6.82;3.00;;;;;;;15.74;80.05;96708.44;5099631;27;20024;-57
2022/09/29 10:36:19;;;;;;;8.68;3.70;;;;;;;15.76;79.88;96694.09;5058510;28;20028;-57
2022/09/29 10:38:49;;;;;;;9.23;3.42;;;;;;;15.79;79.38;96703.34;5066856;28;20093;-58
2022/09/29 10:41:18;;;;;;;6.05;3.95;;;;;;;15.86;80.38;96706.66;5082470;28;20032;-58
2022/09/29 10:43:45;;;;;;;7.47;3.40;;;;;;;15.90;80.23;96699.94;5071821;28;20066;-56
2022/09/29 10:46:48;;;;;;;5.93;3.22;;;;;;;15.96;81.35;96698.25;5088675;28;20028;-57
2022/09/29 10:49:19;;;;;;;7.18;3.22;;;;;;;16.01;81.75;96687.88;5083311;28;20116;-57
2022/09/29 10:52:05;;;;;;;8.82;3.50;;;;;;;16.01;80.20;96647.75;5063428;28;20408;-57
2022/09/29 10:54:34;;;;;;;9.02;3.75;;;;;;;16.28;79.30;96685.63;5071452;28;20023;-58
2022/09/29 10:57:11;;;;;;;8.30;3.72;;;;;;;16.19;77.92;96686.16;5078309;28;20016;-57
2022/09/29 10:59:51;;;;;;;6.93;3.47;;;;;;;16.12;80.17;96691.53;5062514;28;20029;-58
2022/09/29 11:02:26;;;;;;;7.38;3.72;;;;;;;15.90;78.93;96644.13;5068332;28;20531;-57
2022/09/29 11:04:55;;;;;;;6.15;3.50;;;;;;;16.34;79.30;96689.94;5090044;27;20040;-59
2022/09/29 11:07:21;;;;;;;7.38;3.65;;;;;;;16.30;77.96;96694.06;5068768;28;20028;-59
2022/09/29 11:09:46;;;;;;;9.00;4.40;;;;;;;16.10;77.21;96678.66;5066449;28;20526;-57
2022/09/29 11:12:28;;;;;;;7.60;4.03;;;;;;;16.40;77.22;96690.84;5072171;28;20103;-58
2022/09/29 11:14:53;;;;;;;8.75;4.22;;;;;;;16.26;78.04;96656.22;5075643;28;20028;-59
2022/09/29 11:17:23;;;;;;;9.63;4.30;;;;;;;16.53;76.01;96695.84;5071810;28;20031;-61
2022/09/29 11:19:50;;;;;;;9.23;5.13;;;;;;;16.48;75.91;96680.03;5102807;27;20036;-58
2022/09/29 11:22:23;;;;;;;9.68;4.90;;;;;;;16.65;75.51;96674.88;5068313;28;20067;-58
2022/09/29 11:25:03;;;;;;;7.20;4.15;;;;;;;16.63;74.29;96642.81;5067003;28;20059;-60
2022/09/29 11:27:54;;;;;;;7.50;3.85;;;;;;;16.91;74.55;96678.84;5063167;28;20033;-57
2022/09/29 11:30:21;;;;;;;8.10;4.28;;;;;;;16.78;73.94;96652.81;5064620;28;20036;-57
2022/09/29 11:33:14;;;;;;;9.10;4.82;;;;;;;16.94;72.78;96661.84;5048153;28;20098;-58
2022/09/29 11:35:50;;;;;;;10.60;4.43;;;;;;;17.08;72.86;96662.34;5070114;28;20028;-57
2022/09/29 11:38:37;;;;;;;9.98;4.65;;;;;;;17.14;71.63;96658.81;5050904;28;20032;-55
2022/09/29 11:41:13;;;;;;;8.18;4.63;;;;;;;17.16;71.25;96672.50;5068111;28;20360;-59
2022/09/29 11:43:54;;;;;;;10.65;4.82;;;;;;;17.18;75.48;96661.75;5050759;28;20119;-56
2022/09/29 11:46:49;;;;;;;8.73;5.15;;;;;;;17.15;74.31;96659.59;5064295;28;20395;-57
2022/09/29 11:49:39;;;;;;;12.07;4.85;;;;;;;16.95;75.17;96660.78;5072360;28;20748;-57